Dunedin, FL (34698)

9:54 AM EDT on August 26, 2016 (GMT -0400)
| | Change Station

Elev -9999 ft 0.00 °N, 0.00 °E | Updated

Partly Cloudy
Partly Cloudy
86 °F
Feels Like 95 °F
N
8
Wind Variable Wind from ENE
Gusts mph

Today
High -- | Low -- °F
--% Chance of Precip.
Yesterday
High -- | Low -- °F
Precip. -- in
Pressure 30.00 in
Visibility 10.0 miles
Clouds Clear
Heat Index 95 °F
Dew Point 75 °F
Humidity 69%
Rainfall --
Snow Depth Not available.
7:07 AM 7:57 PM
Waning Crescent, 34% visible
METAR KPIE 261253Z 07008KT 10SM CLR 28/24 A3000 RMK AO2 SLP159 T02780244
Pressure 30.00 in
Visibility 10.0 miles
Clouds Clear
Heat Index 95 °F
Dew Point 75 °F
Humidity 69%
Rainfall --
Snow Depth Not available.
7:07 AM 7:57 PM
Waning Crescent, 34% visible
METAR KPIE 261253Z 07008KT 10SM CLR 28/24 A3000 RMK AO2 SLP159 T02780244

10-Day Weather Forecast

Almanac

Astronomy

Aug. 26, 2016 Rise Set
Actual Time
Civil Twilight
Nautical Twilight
Astronomical Twilight
Moon
Length of Visible Light
Length of Day
Tomorrow will be .
, % of the Moon is Illuminated

Today's Extremes

State Highs State Lows

Community

WunderPhotos

Upload Photos

1,935,084 photos uploaded!

WunderBlog® & News

Nearby

Air Quality

  Air Quality AQ Index Pollutant
Not available.

Snow Depth

Station Depth Elevation

Earthquake Activity

City Distance Mag. Time & Date
Minimum magnitude displayed is 2.5.

Coastal Water Temperatures

Place Temperature

Stations

Nearby Weather Stations

Station Location Temp. Windchill Dew Point Humidity Wind Precip. Elev Updated Type
                   

Watches & Warnings

There are currently no watches in effect.